Forsyth, MO (65653)

5:43 AM CDT on March 27, 2015 (GMT -0500)
DanO's Place | | Change Station
CLOSE
Current Station
Personal Weather Station
Location: Forsyth, MO
Elevation: 764 ft
Nearby Weather Stations

Elev 764 ft 36.68 °N, 93.11 °W | Updated 11 seconds ago

Rain
Rain
39.4 °F
Feels Like 39 °F
N
0.0
Wind Variable Wind from NNW
Gusts 1.0 mph

Today
High -- | Low -- °F
--% Chance of Precip.
Yesterday
High -- | Low -- °F
Precip. -- in
7:06 AM 7:30 PM
Waxing Crescent, 51% visible
Pressure 30.08 in
Visibility 10.0 miles
Clouds Scattered Clouds 800 ft
Mostly Cloudy 2600 ft
Overcast 7000 ft
Windchill 39 °F
Dew Point 36 °F
Humidity 88%
Rainfall 0.09 in
Snow Depth Not available.
UV 0 out of 12
Pollen 6.40 out of 12
Air Quality Not available.
Flu Activity Not available.
METAR KBBG 271035Z AUTO 00000KT 10SM -RA SCT008 BKN026 OVC070 03/02 A3008 RMK AO2

More Conditions Fewer Conditions

Pressure 30.08 in
Visibility 10.0 miles
Clouds Scattered Clouds 800 ft
Mostly Cloudy 2600 ft
Overcast 7000 ft
Windchill 39 °F
Dew Point 36 °F
Humidity 88%
Rainfall 0.09 in
Snow Depth Not available.
UV 0 out of 12
Pollen 6.40 out of 12
Air Quality Not available.
Flu Activity Not available.
METAR KBBG 271035Z AUTO 00000KT 10SM -RA SCT008 BKN026 OVC070 03/02 A3008 RMK AO2

More Conditions Fewer Conditions

10-Day Weather Forecast

Almanac

Astronomy

Mar. 27, 2015 Rise Set
Actual Time
Civil Twilight
Nautical Twilight
Astronomical Twilight
Moon
Length of Visible Light
Length of Day
Tomorrow will be .
, % of the Moon is Illuminated

Today's Extremes

State Highs State Lows

Community

WunderPhotos

Upload Photos

1,808,706 photos uploaded!

WunderBlogs® & News

Nearby

Air Quality

  Air Quality AQ Index Pollutant
Not available.

Snow Depth

Station Depth Elevation

Earthquake Activity

City Distance Mag. Time & Date
Minimum magnitude displayed is 2.5.

Coastal Water Temperatures

Place Temperature

Stations

Nearby Weather Stations

Station Location Temp. Windchill Dew Point Humidity Wind Precip. Elev Updated Type